sensor_id;sensor_type;location;lat;lon;timestamp;pressure;altitude;pressure_sealevel;temperature;humidity
50166;BME280;36071;48.140;11.516;2023-03-13T00:03:29;95230.0;;;7.2;73.2
50166;BME280;36071;48.140;11.516;2023-03-13T00:08:29;95210.0;;;7.1;73.0
50166;BME280;36071;48.140;11.516;2023-03-13T00:13:29;95200.0;;;7.1;73.5
50166;BME280;36071;48.140;11.516;2023-03-13T00:18:29;95200.0;;;7.1;72.9
50166;BME280;36071;48.140;11.516;2023-03-13T00:23:29;95190.0;;;7.1;72.8
50166;BME280;36071;48.140;11.516;2023-03-13T00:28:30;95180.0;;;7.0;73.2
50166;BME280;36071;48.140;11.516;2023-03-13T00:33:30;95190.0;;;6.9;73.0
50166;BME280;36071;48.140;11.516;2023-03-13T00:38:29;95180.0;;;6.9;73.2
50166;BME280;36071;48.140;11.516;2023-03-13T00:43:31;95170.0;;;6.8;73.2
50166;BME280;36071;48.140;11.516;2023-03-13T00:48:29;95160.0;;;6.8;73.5
50166;BME280;36071;48.140;11.516;2023-03-13T00:53:29;95160.0;;;6.7;73.1
50166;BME280;36071;48.140;11.516;2023-03-13T00:58:30;95150.0;;;6.7;73.5
50166;BME280;36071;48.140;11.516;2023-03-13T01:03:29;95160.0;;;6.6;73.6
50166;BME280;36071;48.140;11.516;2023-03-13T01:08:29;95150.0;;;6.6;74.1
50166;BME280;36071;48.140;11.516;2023-03-13T01:13:30;95140.0;;;6.5;74.5
50166;BME280;36071;48.140;11.516;2023-03-13T01:18:29;95130.0;;;6.4;74.3
50166;BME280;36071;48.140;11.516;2023-03-13T01:23:29;95140.0;;;6.3;74.9
50166;BME280;36071;48.140;11.516;2023-03-13T01:28:29;95130.0;;;6.3;74.5
50166;BME280;36071;48.140;11.516;2023-03-13T01:33:29;95120.0;;;6.3;74.3
50166;BME280;36071;48.140;11.516;2023-03-13T01:38:52;95120.0;;;6.3;74.7
50166;BME280;36071;48.140;11.516;2023-03-13T01:43:30;95120.0;;;6.2;74.6
50166;BME280;36071;48.140;11.516;2023-03-13T01:48:32;95110.0;;;6.1;74.6
50166;BME280;36071;48.140;11.516;2023-03-13T01:53:30;95120.0;;;6.1;74.8
50166;BME280;36071;48.140;11.516;2023-03-13T01:58:31;95110.0;;;6.0;75.4
50166;BME280;36071;48.140;11.516;2023-03-13T02:03:29;95110.0;;;5.9;75.9
50166;BME280;36071;48.140;11.516;2023-03-13T02:08:30;95100.0;;;5.9;76.0
50166;BME280;36071;48.140;11.516;2023-03-13T02:13:29;95090.0;;;5.9;76.0
50166;BME280;36071;48.140;11.516;2023-03-13T02:18:29;95090.0;;;5.9;75.8
50166;BME280;36071;48.140;11.516;2023-03-13T02:23:30;95080.0;;;5.8;76.2
50166;BME280;36071;48.140;11.516;2023-03-13T02:28:29;95090.0;;;5.8;76.2
50166;BME280;36071;48.140;11.516;2023-03-13T02:33:30;95090.0;;;5.8;76.0
50166;BME280;36071;48.140;11.516;2023-03-13T02:38:29;95090.0;;;5.7;76.1
50166;BME280;36071;48.140;11.516;2023-03-13T02:43:30;95100.0;;;5.7;75.9
50166;BME280;36071;48.140;11.516;2023-03-13T02:53:29;95100.0;;;5.8;75.8
50166;BME280;36071;48.140;11.516;2023-03-13T02:58:34;95100.0;;;5.8;75.5
50166;BME280;36071;48.140;11.516;2023-03-13T03:03:29;95110.0;;;5.8;75.7
50166;BME280;36071;48.140;11.516;2023-03-13T03:08:29;95100.0;;;5.8;75.1
50166;BME280;36071;48.140;11.516;2023-03-13T03:13:29;95090.0;;;5.7;75.3
50166;BME280;36071;48.140;11.516;2023-03-13T03:18:29;95100.0;;;5.8;75.2
50166;BME280;36071;48.140;11.516;2023-03-13T03:23:29;95100.0;;;5.8;74.6
50166;BME280;36071;48.140;11.516;2023-03-13T03:28:29;95100.0;;;5.7;74.8
50166;BME280;36071;48.140;11.516;2023-03-13T03:38:29;95090.0;;;5.8;74.4
50166;BME280;36071;48.140;11.516;2023-03-13T03:43:29;95090.0;;;5.7;74.1
50166;BME280;36071;48.140;11.516;2023-03-13T03:48:29;95080.0;;;5.7;74.1
50166;BME280;36071;48.140;11.516;2023-03-13T03:53:29;95080.0;;;5.7;74.2
50166;BME280;36071;48.140;11.516;2023-03-13T03:58:29;95080.0;;;5.6;74.9
50166;BME280;36071;48.140;11.516;2023-03-13T04:03:29;95070.0;;;5.6;74.2
50166;BME280;36071;48.140;11.516;2023-03-13T04:08:29;95070.0;;;5.6;74.4
50166;BME280;36071;48.140;11.516;2023-03-13T04:13:29;95060.0;;;5.7;74.4
50166;BME280;36071;48.140;11.516;2023-03-13T04:18:29;95060.0;;;5.6;74.2
50166;BME280;36071;48.140;11.516;2023-03-13T04:23:29;95040.0;;;5.6;74.3
50166;BME280;36071;48.140;11.516;2023-03-13T04:28:29;95020.0;;;5.6;74.3
50166;BME280;36071;48.140;11.516;2023-03-13T04:33:29;95010.0;;;5.6;74.0
50166;BME280;36071;48.140;11.516;2023-03-13T04:38:29;95010.0;;;5.6;74.4
50166;BME280;36071;48.140;11.516;2023-03-13T04:43:29;95010.0;;;5.6;74.0
50166;BME280;36071;48.140;11.516;2023-03-13T04:48:29;95000.0;;;5.6;74.0
50166;BME280;36071;48.140;11.516;2023-03-13T04:53:29;94990.0;;;5.6;73.9
50166;BME280;36071;48.140;11.516;2023-03-13T04:58:29;94990.0;;;5.7;73.6
50166;BME280;36071;48.140;11.516;2023-03-13T05:03:29;94980.0;;;5.7;73.1
50166;BME280;36071;48.140;11.516;2023-03-13T05:08:29;94980.0;;;5.7;73.3
50166;BME280;36071;48.140;11.516;2023-03-13T05:13:29;94970.0;;;5.7;73.0
50166;BME280;36071;48.140;11.516;2023-03-13T05:18:29;94970.0;;;5.7;72.8
50166;BME280;36071;48.140;11.516;2023-03-13T05:23:29;94960.0;;;5.7;72.8
50166;BME280;36071;48.140;11.516;2023-03-13T05:28:29;94960.0;;;5.8;72.3
50166;BME280;36071;48.140;11.516;2023-03-13T05:33:29;94950.0;;;5.8;71.7
50166;BME280;36071;48.140;11.516;2023-03-13T05:38:29;94940.0;;;5.9;71.7
50166;BME280;36071;48.140;11.516;2023-03-13T05:43:29;94940.0;;;6.0;70.7
50166;BME280;36071;48.140;11.516;2023-03-13T05:48:29;94940.0;;;6.1;70.1
50166;BME280;36071;48.140;11.516;2023-03-13T05:53:29;94940.0;;;6.2;69.4
50166;BME280;36071;48.140;11.516;2023-03-13T05:58:29;94930.0;;;6.3;68.2
50166;BME280;36071;48.140;11.516;2023-03-13T06:03:29;94920.0;;;6.4;67.3
50166;BME280;36071;48.140;11.516;2023-03-13T06:08:29;94910.0;;;6.5;66.5
50166;BME280;36071;48.140;11.516;2023-03-13T06:13:29;94900.0;;;6.6;66.1
50166;BME280;36071;48.140;11.516;2023-03-13T06:18:29;94890.0;;;6.6;66.2
50166;BME280;36071;48.140;11.516;2023-03-13T06:23:29;94900.0;;;6.7;66.2
50166;BME280;36071;48.140;11.516;2023-03-13T06:28:29;94900.0;;;6.8;66.2
50166;BME280;36071;48.140;11.516;2023-03-13T06:33:29;94900.0;;;6.8;65.8
50166;BME280;36071;48.140;11.516;2023-03-13T06:38:29;94900.0;;;6.9;65.5
50166;BME280;36071;48.140;11.516;2023-03-13T06:43:29;94890.0;;;7.0;65.6
50166;BME280;36071;48.140;11.516;2023-03-13T06:48:29;94890.0;;;7.1;65.3
50166;BME280;36071;48.140;11.516;2023-03-13T06:53:29;94890.0;;;7.2;64.4
50166;BME280;36071;48.140;11.516;2023-03-13T06:58:29;94890.0;;;7.3;64.0
50166;BME280;36071;48.140;11.516;2023-03-13T07:03:29;94840.0;;;6.9;63.4
50166;BME280;36071;48.140;11.516;2023-03-13T07:08:29;94840.0;;;7.0;62.8
50166;BME280;36071;48.140;11.516;2023-03-13T07:13:29;94900.0;;;7.5;62.2
50166;BME280;36071;48.140;11.516;2023-03-13T07:18:29;94890.0;;;7.5;62.0
50166;BME280;36071;48.140;11.516;2023-03-13T07:23:29;94890.0;;;7.6;62.1
50166;BME280;36071;48.140;11.516;2023-03-13T07:28:29;94870.0;;;7.6;61.8
50166;BME280;36071;48.140;11.516;2023-03-13T07:33:29;94870.0;;;7.7;61.8
50166;BME280;36071;48.140;11.516;2023-03-13T07:38:29;94870.0;;;7.8;61.2
50166;BME280;36071;48.140;11.516;2023-03-13T07:43:29;94880.0;;;7.8;60.9
50166;BME280;36071;48.140;11.516;2023-03-13T07:48:30;94880.0;;;7.8;60.6
50166;BME280;36071;48.140;11.516;2023-03-13T07:53:29;94880.0;;;7.9;60.5
50166;BME280;36071;48.140;11.516;2023-03-13T07:58:30;94830.0;;;7.7;59.4
50166;BME280;36071;48.140;11.516;2023-03-13T08:03:29;94880.0;;;8.1;59.4
50166;BME280;36071;48.140;11.516;2023-03-13T08:08:29;94880.0;;;8.3;59.2
50166;BME280;36071;48.140;11.516;2023-03-13T08:13:29;94860.0;;;8.4;59.1
50166;BME280;36071;48.140;11.516;2023-03-13T08:18:29;94860.0;;;8.6;58.7
50166;BME280;36071;48.140;11.516;2023-03-13T08:23:29;94870.0;;;8.8;57.7
50166;BME280;36071;48.140;11.516;2023-03-13T08:28:29;94860.0;;;8.9;58.5
50166;BME280;36071;48.140;11.516;2023-03-13T08:33:29;94870.0;;;8.9;59.6
50166;BME280;36071;48.140;11.516;2023-03-13T08:38:29;94870.0;;;8.9;61.2
50166;BME280;36071;48.140;11.516;2023-03-13T08:43:29;94880.0;;;9.0;61.1
50166;BME280;36071;48.140;11.516;2023-03-13T08:48:29;94870.0;;;9.2;61.2
50166;BME280;36071;48.140;11.516;2023-03-13T08:53:29;94880.0;;;9.4;60.9
50166;BME280;36071;48.140;11.516;2023-03-13T08:58:29;94880.0;;;9.7;59.1
50166;BME280;36071;48.140;11.516;2023-03-13T09:03:29;94870.0;;;10.1;58.5
50166;BME280;36071;48.140;11.516;2023-03-13T09:08:29;94860.0;;;10.5;56.9
50166;BME280;36071;48.140;11.516;2023-03-13T09:13:29;94850.0;;;11.2;55.9
50166;BME280;36071;48.140;11.516;2023-03-13T09:18:29;94850.0;;;11.3;54.7
50166;BME280;36071;48.140;11.516;2023-03-13T09:23:29;94840.0;;;11.4;54.6
50166;BME280;36071;48.140;11.516;2023-03-13T09:28:29;94840.0;;;11.5;54.4
50166;BME280;36071;48.140;11.516;2023-03-13T09:33:29;94840.0;;;12.7;51.6
50166;BME280;36071;48.140;11.516;2023-03-13T09:38:29;94830.0;;;13.3;49.1
50166;BME280;36071;48.140;11.516;2023-03-13T09:43:32;94820.0;;;13.3;48.7
50166;BME280;36071;48.140;11.516;2023-03-13T09:48:30;94820.0;;;14.0;46.6
50166;BME280;36071;48.140;11.516;2023-03-13T09:53:30;94810.0;;;14.5;44.2
50166;BME280;36071;48.140;11.516;2023-03-13T09:58:29;94800.0;;;15.2;42.7
50166;BME280;36071;48.140;11.516;2023-03-13T10:03:30;94800.0;;;15.2;42.0
50166;BME280;36071;48.140;11.516;2023-03-13T10:08:30;94800.0;;;15.5;42.0
50166;BME280;36071;48.140;11.516;2023-03-13T10:13:31;94780.0;;;15.9;41.0
50166;BME280;36071;48.140;11.516;2023-03-13T10:18:30;94770.0;;;16.1;41.3
50166;BME280;36071;48.140;11.516;2023-03-13T10:23:34;94780.0;;;15.8;41.1
50166;BME280;36071;48.140;11.516;2023-03-13T10:28:29;94780.0;;;16.5;40.3
50166;BME280;36071;48.140;11.516;2023-03-13T10:33:29;94780.0;;;16.7;40.1
50166;BME280;36071;48.140;11.516;2023-03-13T10:38:29;94760.0;;;16.7;40.1
50166;BME280;36071;48.140;11.516;2023-03-13T10:43:29;94760.0;;;16.4;40.4
50166;BME280;36071;48.140;11.516;2023-03-13T10:48:29;94750.0;;;16.2;41.5
50166;BME280;36071;48.140;11.516;2023-03-13T10:53:32;94740.0;;;16.6;41.1
50166;BME280;36071;48.140;11.516;2023-03-13T10:58:32;94730.0;;;17.0;40.9
50166;BME280;36071;48.140;11.516;2023-03-13T11:03:30;94740.0;;;17.3;40.5
50166;BME280;36071;48.140;11.516;2023-03-13T11:08:32;94740.0;;;17.6;39.9
50166;BME280;36071;48.140;11.516;2023-03-13T11:13:32;94720.0;;;17.4;40.7
50166;BME280;36071;48.140;11.516;2023-03-13T11:18:31;94710.0;;;18.0;39.9
50166;BME280;36071;48.140;11.516;2023-03-13T11:23:30;94710.0;;;19.0;39.6
50166;BME280;36071;48.140;11.516;2023-03-13T11:28:34;94700.0;;;19.1;39.4
50166;BME280;36071;48.140;11.516;2023-03-13T11:33:34;94700.0;;;19.3;39.3
50166;BME280;36071;48.140;11.516;2023-03-13T11:38:31;94680.0;;;19.5;39.2
50166;BME280;36071;48.140;11.516;2023-03-13T11:43:31;94680.0;;;19.4;40.3
50166;BME280;36071;48.140;11.516;2023-03-13T11:48:34;94670.0;;;19.2;40.9
50166;BME280;36071;48.140;11.516;2023-03-13T11:53:33;94690.0;;;19.3;40.8
50166;BME280;36071;48.140;11.516;2023-03-13T11:58:31;94660.0;;;19.4;40.3
50166;BME280;36071;48.140;11.516;2023-03-13T12:03:31;94660.0;;;19.8;40.1
50166;BME280;36071;48.140;11.516;2023-03-13T12:08:30;94660.0;;;19.9;39.5
50166;BME280;36071;48.140;11.516;2023-03-13T12:13:30;94660.0;;;19.5;40.2
50166;BME280;36071;48.140;11.516;2023-03-13T12:18:30;94650.0;;;19.7;39.9
50166;BME280;36071;48.140;11.516;2023-03-13T12:23:33;94650.0;;;19.3;40.3
50166;BME280;36071;48.140;11.516;2023-03-13T12:28:31;94630.0;;;19.4;40.2
50166;BME280;36071;48.140;11.516;2023-03-13T12:33:30;94630.0;;;19.5;40.2
50166;BME280;36071;48.140;11.516;2023-03-13T12:38:30;94610.0;;;20.0;39.1
50166;BME280;36071;48.140;11.516;2023-03-13T12:43:30;94610.0;;;20.3;38.9
50166;BME280;36071;48.140;11.516;2023-03-13T12:48:36;94610.0;;;20.3;38.3
50166;BME280;36071;48.140;11.516;2023-03-13T12:53:41;94600.0;;;20.2;38.8
50166;BME280;36071;48.140;11.516;2023-03-13T12:58:36;94570.0;;;20.1;38.6
50166;BME280;36071;48.140;11.516;2023-03-13T13:03:30;94570.0;;;20.5;38.5
50166;BME280;36071;48.140;11.516;2023-03-13T13:08:31;94560.0;;;20.4;38.8
50166;BME280;36071;48.140;11.516;2023-03-13T13:13:29;94560.0;;;20.7;37.9
50166;BME280;36071;48.140;11.516;2023-03-13T13:18:30;94560.0;;;20.6;38.7
50166;BME280;36071;48.140;11.516;2023-03-13T13:23:31;94550.0;;;20.9;38.3
50166;BME280;36071;48.140;11.516;2023-03-13T13:28:33;94540.0;;;21.0;38.0
50166;BME280;36071;48.140;11.516;2023-03-13T13:33:33;94520.0;;;21.0;37.8
50166;BME280;36071;48.140;11.516;2023-03-13T13:38:29;94510.0;;;20.9;38.1
50166;BME280;36071;48.140;11.516;2023-03-13T13:43:30;94510.0;;;21.1;38.2
50166;BME280;36071;48.140;11.516;2023-03-13T13:48:30;94500.0;;;21.2;37.4
50166;BME280;36071;48.140;11.516;2023-03-13T13:53:29;94500.0;;;21.4;37.2
50166;BME280;36071;48.140;11.516;2023-03-13T13:58:29;94470.0;;;21.6;37.9
50166;BME280;36071;48.140;11.516;2023-03-13T14:03:30;94470.0;;;21.8;37.9
50166;BME280;36071;48.140;11.516;2023-03-13T14:08:30;94460.0;;;21.5;37.1
50166;BME280;36071;48.140;11.516;2023-03-13T14:13:29;94450.0;;;21.5;37.4
50166;BME280;36071;48.140;11.516;2023-03-13T14:18:29;94440.0;;;21.5;37.1
50166;BME280;36071;48.140;11.516;2023-03-13T14:23:32;94430.0;;;21.8;36.2
50166;BME280;36071;48.140;11.516;2023-03-13T14:28:29;94420.0;;;21.7;36.6
50166;BME280;36071;48.140;11.516;2023-03-13T14:33:29;94420.0;;;21.1;36.3
50166;BME280;36071;48.140;11.516;2023-03-13T14:38:29;94390.0;;;21.2;36.6
50166;BME280;36071;48.140;11.516;2023-03-13T14:43:31;94390.0;;;21.1;36.9
50166;BME280;36071;48.140;11.516;2023-03-13T14:48:30;94380.0;;;21.1;36.6
50166;BME280;36071;48.140;11.516;2023-03-13T14:53:29;94350.0;;;20.8;36.8
50166;BME280;36071;48.140;11.516;2023-03-13T14:58:29;94350.0;;;20.9;36.7
50166;BME280;36071;48.140;11.516;2023-03-13T15:03:30;94290.0;;;20.8;36.9
50166;BME280;36071;48.140;11.516;2023-03-13T15:08:29;94320.0;;;20.7;37.0
50166;BME280;36071;48.140;11.516;2023-03-13T15:13:32;94330.0;;;20.9;37.4
50166;BME280;36071;48.140;11.516;2023-03-13T15:18:30;94290.0;;;20.5;37.3
50166;BME280;36071;48.140;11.516;2023-03-13T15:23:29;94290.0;;;20.7;37.5
50166;BME280;36071;48.140;11.516;2023-03-13T15:28:29;94280.0;;;20.5;37.7
50166;BME280;36071;48.140;11.516;2023-03-13T15:33:29;94260.0;;;20.3;38.2
50166;BME280;36071;48.140;11.516;2023-03-13T15:38:29;94250.0;;;20.2;38.3
50166;BME280;36071;48.140;11.516;2023-03-13T15:43:29;94250.0;;;20.1;38.6
50166;BME280;36071;48.140;11.516;2023-03-13T15:48:29;94230.0;;;20.0;39.1
50166;BME280;36071;48.140;11.516;2023-03-13T15:58:29;94220.0;;;20.0;39.0
50166;BME280;36071;48.140;11.516;2023-03-13T16:03:29;94210.0;;;20.0;38.6
50166;BME280;36071;48.140;11.516;2023-03-13T16:08:29;94190.0;;;20.0;38.2
50166;BME280;36071;48.140;11.516;2023-03-13T16:13:29;94180.0;;;19.7;38.7
50166;BME280;36071;48.140;11.516;2023-03-13T16:18:29;94100.0;;;18.9;39.4
50166;BME280;36071;48.140;11.516;2023-03-13T16:23:29;94160.0;;;19.0;39.8
50166;BME280;36071;48.140;11.516;2023-03-13T16:28:29;94150.0;;;18.9;40.1
50166;BME280;36071;48.140;11.516;2023-03-13T16:33:29;94150.0;;;18.8;40.4
50166;BME280;36071;48.140;11.516;2023-03-13T16:38:29;94130.0;;;18.6;40.7
50166;BME280;36071;48.140;11.516;2023-03-13T16:43:29;94130.0;;;18.5;41.0
50166;BME280;36071;48.140;11.516;2023-03-13T16:48:29;94130.0;;;18.4;41.3
50166;BME280;36071;48.140;11.516;2023-03-13T16:53:29;94100.0;;;18.3;41.6
50166;BME280;36071;48.140;11.516;2023-03-13T16:58:29;94090.0;;;18.2;41.9
50166;BME280;36071;48.140;11.516;2023-03-13T17:03:29;94090.0;;;18.1;42.1
50166;BME280;36071;48.140;11.516;2023-03-13T17:08:29;94080.0;;;18.0;42.7
50166;BME280;36071;48.140;11.516;2023-03-13T17:13:29;94070.0;;;17.8;43.5
50166;BME280;36071;48.140;11.516;2023-03-13T17:18:29;94060.0;;;17.7;43.8
50166;BME280;36071;48.140;11.516;2023-03-13T17:23:29;94040.0;;;17.6;44.4
50166;BME280;36071;48.140;11.516;2023-03-13T17:28:29;94030.0;;;17.5;44.6
50166;BME280;36071;48.140;11.516;2023-03-13T17:33:29;94030.0;;;17.3;44.9
50166;BME280;36071;48.140;11.516;2023-03-13T17:38:29;94030.0;;;17.1;45.2
50166;BME280;36071;48.140;11.516;2023-03-13T17:43:29;94040.0;;;17.0;45.1
50166;BME280;36071;48.140;11.516;2023-03-13T17:48:29;94020.0;;;16.8;45.3
50166;BME280;36071;48.140;11.516;2023-03-13T17:53:29;94030.0;;;16.6;45.3
50166;BME280;36071;48.140;11.516;2023-03-13T17:58:29;94020.0;;;16.4;45.3
50166;BME280;36071;48.140;11.516;2023-03-13T18:03:29;93940.0;;;15.8;45.3
50166;BME280;36071;48.140;11.516;2023-03-13T18:08:29;94020.0;;;16.1;45.4
50166;BME280;36071;48.140;11.516;2023-03-13T18:13:29;94030.0;;;16.0;45.2
50166;BME280;36071;48.140;11.516;2023-03-13T18:18:29;94030.0;;;15.9;45.0
50166;BME280;36071;48.140;11.516;2023-03-13T18:23:31;94020.0;;;15.9;44.9
50166;BME280;36071;48.140;11.516;2023-03-13T18:28:29;94010.0;;;15.8;44.6
50166;BME280;36071;48.140;11.516;2023-03-13T18:33:29;94000.0;;;15.6;44.8
50166;BME280;36071;48.140;11.516;2023-03-13T18:38:29;93980.0;;;15.4;44.9
50166;BME280;36071;48.140;11.516;2023-03-13T18:43:29;93970.0;;;15.3;44.7
50166;BME280;36071;48.140;11.516;2023-03-13T18:48:29;93950.0;;;15.1;44.6
50166;BME280;36071;48.140;11.516;2023-03-13T18:53:30;93940.0;;;15.1;44.5
50166;BME280;36071;48.140;11.516;2023-03-13T18:58:29;93910.0;;;14.9;44.4
50166;BME280;36071;48.140;11.516;2023-03-13T19:03:29;93900.0;;;14.8;44.3
50166;BME280;36071;48.140;11.516;2023-03-13T19:08:29;93880.0;;;14.8;44.9
50166;BME280;36071;48.140;11.516;2023-03-13T19:13:29;93870.0;;;14.6;44.3
50166;BME280;36071;48.140;11.516;2023-03-13T19:18:29;93860.0;;;14.5;44.5
50166;BME280;36071;48.140;11.516;2023-03-13T19:23:29;93850.0;;;14.5;44.5
50166;BME280;36071;48.140;11.516;2023-03-13T19:28:29;93860.0;;;14.4;44.5
50166;BME280;36071;48.140;11.516;2023-03-13T19:33:29;93820.0;;;14.4;44.8
50166;BME280;36071;48.140;11.516;2023-03-13T19:38:29;93830.0;;;14.4;45.4
50166;BME280;36071;48.140;11.516;2023-03-13T19:43:29;93840.0;;;14.4;44.5
50166;BME280;36071;48.140;11.516;2023-03-13T19:48:29;93820.0;;;14.3;44.9
50166;BME280;36071;48.140;11.516;2023-03-13T19:53:29;93820.0;;;14.1;45.2
50166;BME280;36071;48.140;11.516;2023-03-13T19:58:29;93810.0;;;14.0;45.7
50166;BME280;36071;48.140;11.516;2023-03-13T20:03:29;93790.0;;;13.7;46.3
50166;BME280;36071;48.140;11.516;2023-03-13T20:08:29;93810.0;;;13.7;46.3
50166;BME280;36071;48.140;11.516;2023-03-13T20:13:29;93820.0;;;13.7;46.5
50166;BME280;36071;48.140;11.516;2023-03-13T20:18:29;93830.0;;;13.6;46.8
50166;BME280;36071;48.140;11.516;2023-03-13T20:23:29;93830.0;;;13.7;46.6
50166;BME280;36071;48.140;11.516;2023-03-13T20:28:29;93840.0;;;13.7;46.8
50166;BME280;36071;48.140;11.516;2023-03-13T20:33:29;93840.0;;;13.6;46.7
50166;BME280;36071;48.140;11.516;2023-03-13T20:38:29;93820.0;;;13.5;46.9
50166;BME280;36071;48.140;11.516;2023-03-13T20:43:29;93820.0;;;13.3;47.2
50166;BME280;36071;48.140;11.516;2023-03-13T20:48:29;93810.0;;;13.2;47.5
50166;BME280;36071;48.140;11.516;2023-03-13T20:53:29;93790.0;;;13.2;47.4
50166;BME280;36071;48.140;11.516;2023-03-13T20:58:29;93790.0;;;13.2;47.5
50166;BME280;36071;48.140;11.516;2023-03-13T21:03:29;93800.0;;;13.1;47.6
50166;BME280;36071;48.140;11.516;2023-03-13T21:08:29;93810.0;;;13.0;47.8
50166;BME280;36071;48.140;11.516;2023-03-13T21:13:29;93800.0;;;13.0;47.9
50166;BME280;36071;48.140;11.516;2023-03-13T21:18:29;93790.0;;;12.9;48.0
50166;BME280;36071;48.140;11.516;2023-03-13T21:23:29;93790.0;;;12.9;47.6
50166;BME280;36071;48.140;11.516;2023-03-13T21:28:29;93780.0;;;12.8;47.8
50166;BME280;36071;48.140;11.516;2023-03-13T21:33:29;93780.0;;;12.8;47.9
50166;BME280;36071;48.140;11.516;2023-03-13T21:38:29;93780.0;;;12.8;47.6
50166;BME280;36071;48.140;11.516;2023-03-13T21:43:29;93790.0;;;12.8;47.6
50166;BME280;36071;48.140;11.516;2023-03-13T21:48:29;93790.0;;;12.8;46.7
50166;BME280;36071;48.140;11.516;2023-03-13T21:53:29;93810.0;;;12.9;44.3
50166;BME280;36071;48.140;11.516;2023-03-13T21:58:29;93820.0;;;13.1;43.0
50166;BME280;36071;48.140;11.516;2023-03-13T22:03:29;93830.0;;;13.2;43.7
50166;BME280;36071;48.140;11.516;2023-03-13T22:08:29;93870.0;;;13.2;42.8
50166;BME280;36071;48.140;11.516;2023-03-13T22:13:29;94010.0;;;12.8;45.1
50166;BME280;36071;48.140;11.516;2023-03-13T22:18:29;94040.0;;;12.5;48.9
50166;BME280;36071;48.140;11.516;2023-03-13T22:23:29;94080.0;;;12.6;50.1
50166;BME280;36071;48.140;11.516;2023-03-13T22:28:29;94090.0;;;12.6;51.1
50166;BME280;36071;48.140;11.516;2023-03-13T22:33:29;94080.0;;;12.6;52.2
50166;BME280;36071;48.140;11.516;2023-03-13T22:38:29;94090.0;;;12.6;54.1
50166;BME280;36071;48.140;11.516;2023-03-13T22:43:29;94090.0;;;12.6;56.6
50166;BME280;36071;48.140;11.516;2023-03-13T22:48:29;94060.0;;;12.6;58.0
50166;BME280;36071;48.140;11.516;2023-03-13T22:53:29;94050.0;;;12.6;59.6
50166;BME280;36071;48.140;11.516;2023-03-13T22:58:29;94060.0;;;12.5;60.8
50166;BME280;36071;48.140;11.516;2023-03-13T23:03:29;94070.0;;;12.4;62.5
50166;BME280;36071;48.140;11.516;2023-03-13T23:08:29;94070.0;;;12.3;63.6
50166;BME280;36071;48.140;11.516;2023-03-13T23:13:30;94080.0;;;12.4;63.9
50166;BME280;36071;48.140;11.516;2023-03-13T23:18:29;94070.0;;;12.3;64.4
50166;BME280;36071;48.140;11.516;2023-03-13T23:23:29;94050.0;;;12.2;64.5
50166;BME280;36071;48.140;11.516;2023-03-13T23:28:29;94070.0;;;12.3;64.4
50166;BME280;36071;48.140;11.516;2023-03-13T23:33:29;94080.0;;;12.3;64.6
50166;BME280;36071;48.140;11.516;2023-03-13T23:38:29;94060.0;;;12.2;64.9
50166;BME280;36071;48.140;11.516;2023-03-13T23:43:29;94080.0;;;12.2;65.5
50166;BME280;36071;48.140;11.516;2023-03-13T23:48:29;94070.0;;;12.1;65.5
50166;BME280;36071;48.140;11.516;2023-03-13T23:53:29;94100.0;;;12.1;65.9
50166;BME280;36071;48.140;11.516;2023-03-13T23:58:29;94090.0;;;12.0;66.3
